Time;durP1;ratioP1;P1;durP2;ratioP2;P2;SDS_P1;SDS_P2;PMS_P1;PMS_P2;Temp;Humidity;BMP_temperature;BMP_pressure;BME280_temperature;BME280_humidity;BME280_pressure;Samples;Min_cycle;Max_cycle;Signal;HPM_P1;HPM_P2
2022/11/29 00:01:04;;;;;;;7.10;1.08;;;24.70;53.40;;;;;;5069793;28;20384;-90
2022/11/29 00:03:32;;;;;;;9.67;0.97;;;24.70;52.20;;;;;;5053521;28;20735;-84
2022/11/29 00:06:17;;;;;;;12.27;1.00;;;24.40;53.60;;;;;;5069019;28;20424;-90
2022/11/29 00:08:44;;;;;;;3.78;0.50;;;24.60;53.80;;;;;;5068421;28;20435;-88
2022/11/29 00:14:13;;;;;;;2.17;0.50;;;24.40;53.90;;;;;;5013711;28;20379;-85
2022/11/29 00:16:41;;;;;;;8.15;0.85;;;24.20;53.40;;;;;;5027459;28;20824;-85
2022/11/29 00:19:09;;;;;;;8.65;0.77;;;24.00;53.30;;;;;;5012073;28;20381;-82
2022/11/29 00:21:36;;;;;;;10.50;0.98;;;24.30;53.30;;;;;;5027087;28;20801;-83
2022/11/29 00:24:04;;;;;;;1.85;0.60;;;24.70;53.20;;;;;;5027837;28;20390;-84
2022/11/29 00:26:31;;;;;;;3.47;0.50;;;25.20;51.00;;;;;;5030440;28;20387;-83
2022/11/29 00:28:59;;;;;;;5.90;0.85;;;25.00;52.10;;;;;;5032483;28;20384;-82
2022/11/29 00:31:30;;;;;;;3.50;0.63;;;25.40;50.80;;;;;;5030551;28;20382;-85
2022/11/29 00:33:58;;;;;;;7.18;0.80;;;25.70;50.10;;;;;;5018045;28;20404;-86
2022/11/29 00:36:26;;;;;;;6.00;0.77;;;26.00;50.60;;;;;;5031491;28;20442;-90
2022/11/29 00:38:55;;;;;;;2.85;0.50;;;25.90;49.90;;;;;;5011908;28;20490;-83
2022/11/29 00:41:22;;;;;;;1.85;0.40;;;25.50;51.10;;;;;;5027069;28;20401;-83
2022/11/29 00:43:53;;;;;;;1.55;0.50;;;25.50;50.90;;;;;;5025969;28;20410;-84
2022/11/29 00:46:22;;;;;;;1.88;0.60;;;25.70;51.00;;;;;;5025310;28;20512;-83
2022/11/29 00:48:49;;;;;;;2.03;0.50;;;25.80;51.00;;;;;;5036197;28;20385;-83
2022/11/29 00:51:21;;;;;;;2.15;0.50;;;26.00;50.60;;;;;;5048649;28;20852;-84
2022/11/29 00:53:48;;;;;;;0.98;0.47;;;25.60;50.20;;;;;;5058368;28;20383;-85
2022/11/29 00:56:15;;;;;;;2.80;0.50;;;25.10;50.60;;;;;;5074364;28;20375;-83
2022/11/29 00:58:47;;;;;;;1.08;0.43;;;24.80;52.80;;;;;;5060204;28;20479;-83
2022/11/29 01:01:18;;;;;;;1.40;0.47;;;24.70;52.30;;;;;;5076413;28;20373;-84
2022/11/29 01:03:45;;;;;;;1.13;0.40;;;24.90;53.00;;;;;;5075604;28;20446;-87
2022/11/29 01:06:14;;;;;;;2.33;0.50;;;25.10;51.20;;;;;;5075552;28;20369;-83
2022/11/29 01:08:48;;;;;;;1.30;0.50;;;25.10;51.00;;;;;;5075951;28;20378;-84
2022/11/29 01:11:21;;;;;;;1.80;0.40;;;25.10;51.50;;;;;;5043949;28;20400;-85
2022/11/29 01:13:56;;;;;;;1.00;0.30;;;25.00;53.00;;;;;;5074376;28;20416;-83
2022/11/29 01:16:23;;;;;;;1.85;0.50;;;25.20;53.60;;;;;;5075048;28;20722;-91
2022/11/29 01:18:50;;;;;;;1.55;0.50;;;25.80;52.50;;;;;;5073057;28;20472;-83
2022/11/29 01:21:20;;;;;;;8.93;1.08;;;25.90;50.50;;;;;;5071460;28;20448;-84
2022/11/29 01:23:53;;;;;;;2.60;0.60;;;26.50;52.30;;;;;;5054053;28;20390;-84
2022/11/29 01:26:28;;;;;;;2.00;0.60;;;26.90;48.60;;;;;;5051010;28;20378;-82
2022/11/29 01:28:57;;;;;;;2.93;0.60;;;27.30;48.10;;;;;;5060361;28;20378;-83
2022/11/29 01:31:34;;;;;;;0.63;0.30;;;27.50;47.50;;;;;;5072870;28;20397;-84
2022/11/29 01:34:03;;;;;;;1.27;0.50;;;27.50;48.00;;;;;;5056224;28;20903;-86
2022/11/29 01:36:31;;;;;;;4.03;0.50;;;27.20;48.30;;;;;;5057936;28;20384;-88
2022/11/29 01:39:02;;;;;;;1.80;0.50;;;26.90;48.60;;;;;;5074268;28;20489;-83
2022/11/29 01:41:31;;;;;;;2.40;0.60;;;27.30;48.20;;;;;;5071993;28;20386;-86
2022/11/29 01:44:06;;;;;;;1.20;0.50;;;26.90;47.40;;;;;;5072532;28;20450;-86
2022/11/29 01:46:40;;;;;;;1.02;0.45;;;26.70;49.90;;;;;;5076421;28;20386;-85
2022/11/29 01:49:37;;;;;;;2.08;0.50;;;26.80;49.50;;;;;;5073024;28;20382;-91
2022/11/29 01:52:21;;;;;;;2.10;0.65;;;27.00;48.00;;;;;;5075582;28;21058;-85
2022/11/29 01:54:56;;;;;;;0.95;0.45;;;27.60;46.90;;;;;;5074064;28;20373;-84
2022/11/29 01:57:23;;;;;;;2.83;0.50;;;28.50;45.90;;;;;;5073073;28;20402;-85
2022/11/29 01:59:54;;;;;;;3.73;0.50;;;29.10;45.20;;;;;;5075794;28;20780;-87
2022/11/29 02:02:30;;;;;;;2.78;0.60;;;29.50;45.00;;;;;;5073324;28;20414;-92
2022/11/29 02:04:59;;;;;;;1.98;0.43;;;29.40;45.00;;;;;;5074230;28;20370;-84
2022/11/29 02:07:27;;;;;;;0.98;0.50;;;29.20;44.70;;;;;;5059969;28;20926;-85
2022/11/29 02:10:00;;;;;;;1.17;0.40;;;29.10;44.60;;;;;;5077363;28;20408;-83
2022/11/29 02:12:46;;;;;;;1.20;0.40;;;29.40;44.30;;;;;;5038493;28;20392;-84
2022/11/29 02:15:39;;;;;;;1.80;0.50;;;30.20;43.80;;;;;;5056239;28;20947;-88
2022/11/29 02:18:42;;;;;;;2.35;0.50;;;30.30;42.60;;;;;;4991266;28;20850;-84
2022/11/29 02:21:31;;;;;;;4.07;0.85;;;29.80;44.40;;;;;;4912874;29;20417;-88
2022/11/29 02:24:19;;;;;;;1.50;0.50;;;30.20;44.50;;;;;;4894866;29;20896;-83
2022/11/29 02:26:57;;;;;;;1.58;0.40;;;30.70;42.70;;;;;;4915165;29;20399;-87
2022/11/29 02:30:01;;;;;;;1.50;0.40;;;31.20;41.80;;;;;;4915228;29;20470;-84
2022/11/29 02:32:48;;;;;;;6.47;0.90;;;31.80;41.30;;;;;;4914923;29;20832;-89
2022/11/29 02:35:42;;;;;;;2.70;0.50;;;31.80;40.90;;;;;;4913419;29;20392;-84
2022/11/29 02:38:46;;;;;;;3.22;0.50;;;31.60;41.80;;;;;;4914767;29;20872;-83
2022/11/29 02:41:30;;;;;;;1.60;0.60;;;31.80;40.90;;;;;;4849682;29;20407;-84
2022/11/29 02:44:14;;;;;;;1.87;0.50;;;31.80;41.40;;;;;;4859033;29;20440;-88
2022/11/29 02:47:09;;;;;;;1.38;0.50;;;32.20;41.50;;;;;;4856817;29;20874;-84
2022/11/29 02:49:58;;;;;;;0.70;0.40;;;32.20;41.70;;;;;;4855429;29;20396;-84
2022/11/29 02:52:38;;;;;;;1.20;0.30;;;31.50;40.30;;;;;;4855644;29;20393;-87
2022/11/29 02:55:10;;;;;;;2.50;0.50;;;30.90;41.20;;;;;;4887257;29;20427;-89
2022/11/29 02:57:40;;;;;;;3.78;0.63;;;30.90;41.70;;;;;;4952547;28;20500;-87
2022/11/29 03:00:09;;;;;;;1.42;0.40;;;31.20;42.00;;;;;;4977070;28;20937;-85
2022/11/29 03:02:55;;;;;;;2.70;0.43;;;31.40;41.20;;;;;;4975868;28;20424;-90
2022/11/29 03:05:46;;;;;;;1.88;0.50;;;32.30;41.20;;;;;;4989065;28;20464;-83
2022/11/29 03:08:34;;;;;;;1.73;0.50;;;32.40;40.60;;;;;;4988262;28;20389;-84
2022/11/29 03:11:33;;;;;;;3.03;0.60;;;32.50;40.40;;;;;;4972134;28;20400;-85
2022/11/29 03:14:37;;;;;;;3.10;0.50;;;32.20;40.00;;;;;;4916598;29;20395;-85
2022/11/29 03:17:07;;;;;;;2.30;0.40;;;32.10;40.40;;;;;;4926438;29;20469;-86
2022/11/29 03:19:58;;;;;;;1.20;0.47;;;31.80;40.10;;;;;;4983718;28;20482;-83
2022/11/29 03:22:57;;;;;;;2.00;0.35;;;31.50;40.40;;;;;;4978581;28;20416;-82
2022/11/29 03:25:42;;;;;;;0.50;0.37;;;31.10;40.80;;;;;;4931214;29;20413;-83
2022/11/29 03:28:31;;;;;;;4.35;0.50;;;30.70;40.50;;;;;;4916721;29;20413;-85
2022/11/29 03:31:15;;;;;;;2.53;0.50;;;30.90;41.00;;;;;;4920854;29;20546;-86
2022/11/29 03:34:11;;;;;;;1.67;0.50;;;31.10;42.00;;;;;;4929819;29;20448;-84
2022/11/29 03:37:10;;;;;;;1.63;0.50;;;30.70;42.70;;;;;;4929651;29;20396;-88
2022/11/29 03:40:04;;;;;;;1.77;0.50;;;30.60;42.40;;;;;;4929556;29;20401;-89
2022/11/29 03:42:57;;;;;;;2.83;0.70;;;31.10;42.90;;;;;;4929614;29;20438;-86
2022/11/29 03:45:42;;;;;;;0.88;0.40;;;31.10;42.80;;;;;;4912357;29;20449;-83
2022/11/29 03:48:42;;;;;;;0.93;0.40;;;31.20;41.50;;;;;;4929462;29;20397;-84
2022/11/29 03:51:23;;;;;;;2.20;0.50;;;30.90;42.60;;;;;;4955328;28;20760;-85
2022/11/29 03:54:07;;;;;;;0.90;0.43;;;31.30;42.00;;;;;;4967855;28;20405;-88
2022/11/29 03:56:39;;;;;;;1.27;0.50;;;31.10;41.80;;;;;;4967948;28;20419;-90
2022/11/29 03:59:24;;;;;;;1.00;0.60;;;30.90;42.40;;;;;;4967133;28;20398;-87
2022/11/29 04:02:00;;;;;;;2.22;0.50;;;30.90;41.90;;;;;;4999090;28;20402;-85
2022/11/29 04:04:51;;;;;;;2.10;0.50;;;30.60;43.30;;;;;;5068205;28;20541;-85
2022/11/29 04:07:24;;;;;;;2.35;0.70;;;30.70;43.50;;;;;;5054953;28;20395;-87
2022/11/29 04:10:01;;;;;;;3.40;0.70;;;30.60;43.90;;;;;;5062585;28;20388;-88
2022/11/29 04:12:58;;;;;;;2.20;0.70;;;30.60;44.00;;;;;;5065954;28;20381;-86
2022/11/29 04:15:40;;;;;;;4.17;0.80;;;30.80;44.90;;;;;;5060375;28;20849;-85
2022/11/29 04:18:38;;;;;;;1.40;0.60;;;30.80;45.10;;;;;;5070044;28;20419;-86
2022/11/29 04:21:14;;;;;;;2.20;0.70;;;31.00;44.90;;;;;;5053844;28;20374;-86
2022/11/29 04:23:53;;;;;;;2.15;0.60;;;31.40;45.20;;;;;;5034094;28;20433;-83
2022/11/29 04:26:28;;;;;;;2.65;0.60;;;31.00;44.60;;;;;;5061977;28;20418;-85
2022/11/29 04:29:07;;;;;;;1.92;0.60;;;30.80;45.80;;;;;;5067097;28;20407;-86
2022/11/29 04:31:50;;;;;;;2.30;0.52;;;30.70;45.60;;;;;;5067382;28;20481;-83
2022/11/29 04:34:59;;;;;;;1.50;0.63;;;30.50;46.10;;;;;;5048831;28;20747;-84
2022/11/29 04:38:35;;;;;;;2.17;0.70;;;30.30;47.00;;;;;;4968589;28;20396;-84
2022/11/29 04:41:56;;;;;;;1.90;0.60;;;29.70;48.70;;;;;;4920328;29;20442;-89
2022/11/29 04:44:47;;;;;;;3.33;0.70;;;29.40;49.80;;;;;;4900692;29;20405;-90
2022/11/29 04:47:20;;;;;;;2.33;0.75;;;30.00;48.80;;;;;;4932147;29;20398;-89
2022/11/29 04:50:25;;;;;;;1.88;0.60;;;29.50;49.70;;;;;;4930178;29;20393;-87
2022/11/29 04:53:16;;;;;;;2.70;0.70;;;28.90;50.50;;;;;;4925453;29;20483;-89
2022/11/29 04:56:09;;;;;;;1.23;0.65;;;28.10;52.70;;;;;;4927675;29;20390;-85
2022/11/29 04:58:58;;;;;;;2.00;0.68;;;28.60;51.70;;;;;;4923990;29;20416;-89
2022/11/29 05:01:42;;;;;;;1.55;0.70;;;29.50;50.70;;;;;;4916479;29;20398;-85
2022/11/29 05:04:32;;;;;;;2.90;0.80;;;29.40;49.80;;;;;;4921373;29;20401;-88
2022/11/29 05:07:41;;;;;;;1.90;0.70;;;28.50;50.70;;;;;;4928410;29;20493;-86
2022/11/29 05:10:32;;;;;;;3.37;0.93;;;28.20;51.60;;;;;;4909568;29;20410;-90
2022/11/29 05:13:23;;;;;;;2.10;0.70;;;28.70;51.00;;;;;;4993804;28;20366;-83
2022/11/29 05:16:23;;;;;;;2.45;0.70;;;29.50;49.60;;;;;;5047656;28;20379;-89
2022/11/29 05:19:14;;;;;;;2.85;0.77;;;29.80;48.60;;;;;;5051033;28;20380;-85
2022/11/29 05:22:20;;;;;;;2.40;0.75;;;29.60;50.10;;;;;;5043984;28;20417;-85
2022/11/29 05:25:28;;;;;;;3.30;0.70;;;29.60;50.60;;;;;;5066645;28;20441;-87
2022/11/29 05:28:27;;;;;;;2.67;0.90;;;30.00;49.50;;;;;;5056889;28;20390;-88
2022/11/29 05:31:24;;;;;;;2.17;0.98;;;30.20;50.80;;;;;;5051427;28;20452;-85
2022/11/29 05:34:16;;;;;;;4.93;1.10;;;29.80;51.60;;;;;;5045550;28;20383;-87
2022/11/29 05:37:06;;;;;;;3.95;1.20;;;29.10;52.70;;;;;;5071871;28;20757;-88
2022/11/29 05:39:51;;;;;;;4.97;1.40;;;28.80;53.90;;;;;;5071828;28;20435;-85
2022/11/29 05:42:39;;;;;;;4.38;1.50;;;28.80;53.70;;;;;;5070644;28;20402;-85
2022/11/29 05:45:42;;;;;;;5.50;1.30;;;29.20;53.60;;;;;;5051258;28;20415;-84
2022/11/29 05:48:21;;;;;;;5.88;1.50;;;29.20;53.50;;;;;;5048963;28;20376;-87
2022/11/29 05:51:09;;;;;;;4.82;1.30;;;29.20;54.00;;;;;;5052331;28;20401;-82
2022/11/29 05:54:07;;;;;;;3.35;1.35;;;29.40;53.30;;;;;;5062259;28;20384;-87
2022/11/29 05:57:07;;;;;;;5.15;1.35;;;29.40;53.00;;;;;;4989505;28;20399;-85
2022/11/29 05:59:37;;;;;;;4.35;1.40;;;29.60;52.60;;;;;;4977807;28;20420;-87
2022/11/29 06:02:28;;;;;;;3.88;1.48;;;29.40;52.80;;;;;;4979073;28;20486;-85
2022/11/29 06:05:05;;;;;;;6.07;1.40;;;28.90;53.70;;;;;;4970809;28;20540;-83
2022/11/29 06:07:58;;;;;;;5.22;1.38;;;28.50;54.00;;;;;;4972849;28;20404;-82
2022/11/29 06:10:31;;;;;;;3.83;1.42;;;28.20;54.80;;;;;;4970539;28;20490;-83
2022/11/29 06:13:26;;;;;;;5.20;1.43;;;28.30;55.00;;;;;;4974963;28;20389;-87
2022/11/29 06:16:30;;;;;;;5.33;1.40;;;28.20;54.50;;;;;;4974834;28;20400;-85
2022/11/29 06:19:33;;;;;;;4.97;1.30;;;27.40;55.80;;;;;;4984112;28;20389;-85
2022/11/29 06:22:34;;;;;;;5.32;1.50;;;26.60;57.50;;;;;;4959677;28;20405;-83
2022/11/29 06:25:15;;;;;;;4.60;1.48;;;26.20;57.20;;;;;;4987405;28;20860;-89
2022/11/29 06:27:56;;;;;;;4.57;1.50;;;25.50;58.90;;;;;;4979713;28;20389;-88
2022/11/29 06:30:41;;;;;;;4.78;1.40;;;25.10;59.50;;;;;;4973986;28;20765;-88
2022/11/29 06:33:39;;;;;;;5.88;1.50;;;24.50;60.00;;;;;;4998587;28;20387;-88
2022/11/29 06:36:21;;;;;;;7.85;1.80;;;24.30;62.70;;;;;;5060602;28;20378;-85
2022/11/29 06:38:49;;;;;;;4.43;1.67;;;25.20;62.30;;;;;;5055971;28;20936;-87
2022/11/29 06:41:22;;;;;;;7.53;1.70;;;26.00;59.80;;;;;;5068271;28;20436;-84
2022/11/29 06:43:50;;;;;;;4.90;1.67;;;26.60;57.60;;;;;;5052850;28;20393;-85
2022/11/29 06:46:50;;;;;;;5.43;1.55;;;26.90;57.30;;;;;;5068460;28;20377;-84
2022/11/29 06:49:49;;;;;;;6.90;1.73;;;26.90;56.80;;;;;;5067622;28;20391;-89
2022/11/29 06:52:37;;;;;;;6.43;1.63;;;26.60;57.00;;;;;;4979996;28;20543;-83
2022/11/29 06:55:22;;;;;;;7.25;1.70;;;26.30;57.50;;;;;;4974259;28;20478;-84
2022/11/29 06:58:02;;;;;;;6.68;1.80;;;26.50;57.90;;;;;;4973857;28;20956;-89
2022/11/29 07:00:46;;;;;;;6.30;1.85;;;26.60;57.10;;;;;;4978198;28;20430;-89
2022/11/29 07:03:40;;;;;;;5.95;1.70;;;26.00;57.30;;;;;;4987259;28;20541;-83
2022/11/29 07:06:26;;;;;;;5.10;1.70;;;24.90;59.10;;;;;;4988557;28;20377;-88
2022/11/29 07:09:10;;;;;;;5.05;1.70;;;24.10;61.40;;;;;;4979627;28;20393;-86
2022/11/29 07:11:37;;;;;;;5.63;1.50;;;23.60;62.60;;;;;;4985629;28;20397;-88
2022/11/29 07:14:04;;;;;;;6.72;1.67;;;23.20;63.70;;;;;;4988723;28;20392;-91
2022/11/29 07:16:57;;;;;;;6.88;2.10;;;22.70;64.80;;;;;;4980583;28;20411;-91
2022/11/29 07:19:47;;;;;;;10.00;2.00;;;22.40;66.50;;;;;;4983536;28;20435;-87
2022/11/29 07:22:49;;;;;;;8.15;2.00;;;22.00;67.90;;;;;;4977711;28;20420;-82
2022/11/29 07:25:25;;;;;;;7.25;1.85;;;21.60;68.80;;;;;;4983548;28;20425;-83
2022/11/29 07:27:52;;;;;;;7.63;2.10;;;21.50;69.20;;;;;;4980679;28;21030;-85
2022/11/29 07:30:34;;;;;;;9.07;1.90;;;21.30;69.50;;;;;;5038264;28;21058;-76
2022/11/29 07:33:03;;;;;;;7.88;1.90;;;21.20;68.90;;;;;;5038356;28;20491;-81
2022/11/29 07:35:48;;;;;;;8.85;2.00;;;21.10;69.30;;;;;;5038688;28;20421;-87
2022/11/29 07:38:33;;;;;;;7.90;2.05;;;21.00;70.50;;;;;;5044651;28;20422;-88
2022/11/29 07:41:17;;;;;;;8.00;1.88;;;21.00;71.30;;;;;;5044804;28;20367;-85
2022/11/29 07:44:09;;;;;;;10.10;2.33;;;20.80;72.30;;;;;;5043372;28;20421;-89
2022/11/29 07:46:37;;;;;;;10.05;2.10;;;20.70;72.90;;;;;;5033948;28;20471;-82
2022/11/29 07:49:05;;;;;;;12.65;2.40;;;20.60;73.20;;;;;;5036815;28;20803;-91
2022/11/29 07:51:32;;;;;;;8.43;2.25;;;20.60;73.40;;;;;;5045065;28;20458;-87
2022/11/29 07:54:00;;;;;;;10.45;2.10;;;20.60;73.40;;;;;;5040406;28;20397;-85
2022/11/29 07:56:26;;;;;;;10.40;2.20;;;20.60;74.10;;;;;;5046278;28;20381;-82
2022/11/29 07:58:53;;;;;;;10.07;2.38;;;20.40;74.40;;;;;;5067323;28;20485;-87
2022/11/29 08:01:20;;;;;;;8.35;2.25;;;20.20;75.00;;;;;;5058143;28;20449;-86
2022/11/29 08:03:47;;;;;;;10.88;2.55;;;20.20;74.70;;;;;;5061677;28;20374;-87
2022/11/29 08:06:14;;;;;;;11.68;2.20;;;20.10;75.50;;;;;;5057908;28;20773;-87
2022/11/29 08:08:41;;;;;;;7.80;2.13;;;20.00;76.30;;;;;;5067256;28;20783;-89
2022/11/29 08:11:12;;;;;;;9.88;2.35;;;20.10;76.50;;;;;;5046826;28;20393;-87
2022/11/29 08:13:39;;;;;;;7.90;2.03;;;20.00;76.50;;;;;;5059290;28;20370;-86
2022/11/29 08:16:06;;;;;;;9.10;2.20;;;20.00;76.70;;;;;;5042654;28;20386;-86
2022/11/29 08:18:35;;;;;;;9.95;2.30;;;20.00;76.70;;;;;;5067480;28;20382;-87
2022/11/29 08:21:06;;;;;;;8.30;2.20;;;19.90;77.30;;;;;;5048861;28;20421;-86
2022/11/29 08:23:33;;;;;;;11.02;2.15;;;19.90;77.10;;;;;;5061261;28;20417;-86
2022/11/29 08:26:03;;;;;;;8.27;2.03;;;19.80;78.00;;;;;;5040196;28;20458;-87
2022/11/29 08:28:30;;;;;;;8.77;2.30;;;19.70;78.20;;;;;;5048033;28;20385;-87
2022/11/29 08:31:02;;;;;;;8.40;2.13;;;19.70;78.90;;;;;;5064959;28;20370;-85
2022/11/29 08:33:30;;;;;;;10.30;2.78;;;19.70;79.30;;;;;;5055134;28;20402;-86
2022/11/29 08:36:03;;;;;;;8.75;2.10;;;19.70;80.10;;;;;;5058499;28;20393;-86
2022/11/29 08:38:30;;;;;;;10.50;2.38;;;19.60;79.70;;;;;;5057007;28;20908;-86
2022/11/29 08:41:01;;;;;;;10.20;2.23;;;19.50;80.40;;;;;;5047711;28;20410;-86
2022/11/29 08:43:29;;;;;;;11.18;2.20;;;19.40;82.00;;;;;;5061761;28;20413;-86
2022/11/29 08:45:57;;;;;;;10.40;2.30;;;19.40;82.50;;;;;;5062263;28;20950;-86
2022/11/29 08:48:29;;;;;;;7.35;1.92;;;19.40;82.60;;;;;;5055489;28;20458;-86
2022/11/29 08:50:57;;;;;;;8.63;2.00;;;19.40;82.90;;;;;;5062244;28;20374;-88
2022/11/29 08:53:40;;;;;;;9.15;1.92;;;19.40;82.90;;;;;;5076910;28;20469;-86
2022/11/29 08:56:17;;;;;;;8.43;2.10;;;19.40;83.00;;;;;;5042958;28;20385;-86
2022/11/29 08:58:44;;;;;;;11.23;2.40;;;19.40;83.60;;;;;;5047090;28;20399;-86
2022/11/29 09:01:16;;;;;;;8.40;2.08;;;19.40;84.00;;;;;;5060352;28;20387;-87
2022/11/29 09:04:03;;;;;;;11.55;2.30;;;19.40;84.90;;;;;;5064698;28;20490;-86
2022/11/29 09:06:38;;;;;;;9.68;2.30;;;19.40;85.40;;;;;;5009128;28;20421;-87
2022/11/29 09:09:05;;;;;;;9.32;2.42;;;19.30;86.00;;;;;;4994226;28;20389;-86
2022/11/29 09:11:34;;;;;;;11.32;2.30;;;19.30;87.40;;;;;;5022213;28;20397;-86
2022/11/29 09:14:06;;;;;;;11.27;2.33;;;19.30;88.40;;;;;;4994965;28;20482;-85
2022/11/29 09:16:36;;;;;;;8.07;1.90;;;19.30;88.70;;;;;;5016091;28;20475;-86
2022/11/29 09:19:04;;;;;;;7.97;2.20;;;19.30;89.80;;;;;;5003213;28;20402;-85
2022/11/29 09:21:33;;;;;;;11.00;2.30;;;19.20;90.10;;;;;;4995302;28;20485;-86
2022/11/29 09:24:04;;;;;;;9.05;2.40;;;19.00;90.30;;;;;;5003989;28;20413;-86
2022/11/29 09:26:33;;;;;;;11.27;2.47;;;19.20;90.80;;;;;;5010725;28;20407;-86
2022/11/29 09:29:05;;;;;;;9.93;2.25;;;19.20;90.90;;;;;;4994360;28;21268;-86
2022/11/29 09:31:33;;;;;;;8.30;2.40;;;19.20;91.40;;;;;;5007287;28;20383;-85
2022/11/29 09:34:00;;;;;;;12.70;2.50;;;19.20;91.60;;;;;;5007912;28;20410;-86
2022/11/29 09:36:29;;;;;;;8.93;2.30;;;19.20;91.70;;;;;;5014359;28;20397;-85
2022/11/29 09:38:58;;;;;;;12.07;2.90;;;19.20;91.90;;;;;;5035339;28;20483;-86
2022/11/29 09:42:01;;;;;;;8.73;2.40;;;19.20;92.10;;;;;;5059492;28;20380;-85
2022/11/29 09:44:40;;;;;;;12.63;2.70;;;19.20;92.20;;;;;;5053002;28;20406;-86
2022/11/29 09:47:16;;;;;;;9.82;2.50;;;19.30;92.40;;;;;;5059153;28;20726;-85
2022/11/29 09:49:54;;;;;;;9.18;2.53;;;19.30;92.60;;;;;;5068700;28;20377;-85
2022/11/29 09:52:53;;;;;;;10.73;2.53;;;19.40;93.00;;;;;;5054874;28;20744;-86
2022/11/29 09:55:37;;;;;;;10.57;2.67;;;19.30;93.00;;;;;;4951934;28;20730;-86
2022/11/29 09:58:09;;;;;;;11.73;2.47;;;19.20;93.60;;;;;;4961697;28;20489;-86
2022/11/29 10:00:46;;;;;;;12.20;2.70;;;19.10;94.10;;;;;;4963444;28;20452;-86
2022/11/29 10:03:35;;;;;;;10.43;2.50;;;19.20;94.40;;;;;;4955280;28;20418;-85
2022/11/29 10:06:13;;;;;;;10.38;2.22;;;19.10;94.50;;;;;;4953520;28;20885;-85
2022/11/29 10:09:35;;;;;;;9.55;2.35;;;19.10;94.60;;;;;;4953354;28;20408;-87
2022/11/29 10:12:14;;;;;;;12.50;2.83;;;19.10;94.90;;;;;;4871433;29;20407;-86
2022/11/29 10:14:50;;;;;;;9.95;2.40;;;19.10;95.00;;;;;;4872414;29;20399;-88
2022/11/29 10:17:35;;;;;;;10.50;2.20;;;19.10;94.50;;;;;;4872567;29;20892;-85
2022/11/29 10:20:28;;;;;;;10.18;2.15;;;19.00;94.60;;;;;;4872352;29;20482;-85
2022/11/29 10:23:02;;;;;;;9.90;2.50;;;19.00;94.90;;;;;;4872051;29;20434;-86
2022/11/29 10:25:50;;;;;;;11.82;2.50;;;19.00;95.20;;;;;;4872638;29;20419;-88
2022/11/29 10:28:21;;;;;;;11.25;2.70;;;19.00;95.30;;;;;;4871925;29;20430;-87
2022/11/29 10:30:50;;;;;;;11.38;3.20;;;19.00;95.50;;;;;;4905880;29;21090;-87
2022/11/29 10:33:28;;;;;;;17.70;3.92;;;18.90;95.80;;;;;;4946692;29;20840;-87
2022/11/29 10:36:15;;;;;;;15.90;3.70;;;19.00;96.20;;;;;;4947478;29;20924;-86
2022/11/29 10:38:45;;;;;;;11.85;3.78;;;18.90;95.90;;;;;;4929185;28;20483;-86
2022/11/29 10:41:18;;;;;;;14.90;3.45;;;18.90;96.20;;;;;;4957020;28;20923;-86
2022/11/29 10:43:45;;;;;;;13.45;2.88;;;18.90;96.00;;;;;;4947451;29;20971;-88
2022/11/29 10:46:29;;;;;;;14.85;3.03;;;18.80;96.00;;;;;;4947928;28;21208;-86
2022/11/29 10:48:58;;;;;;;14.13;3.10;;;18.90;96.40;;;;;;5026048;28;20390;-86
2022/11/29 10:51:25;;;;;;;12.77;3.05;;;18.90;96.40;;;;;;5057867;28;20372;-87
2022/11/29 10:53:53;;;;;;;12.45;2.95;;;18.80;96.40;;;;;;5058318;28;20401;-84
2022/11/29 10:56:29;;;;;;;14.10;3.10;;;18.80;96.10;;;;;;5045904;28;20466;-87
2022/11/29 10:59:03;;;;;;;15.13;3.10;;;18.70;96.10;;;;;;5010472;28;20732;-85
2022/11/29 11:01:40;;;;;;;12.50;3.20;;;18.60;96.00;;;;;;5019894;28;20895;-86
2022/11/29 11:04:13;;;;;;;12.93;3.50;;;18.60;96.00;;;;;;5016536;28;20472;-86
2022/11/29 11:06:51;;;;;;;13.30;3.38;;;18.50;96.20;;;;;;5016428;28;21509;-88
2022/11/29 11:09:34;;;;;;;13.73;3.60;;;18.60;96.20;;;;;;5024405;28;20378;-86
2022/11/29 11:12:17;;;;;;;13.57;3.73;;;18.50;95.70;;;;;;5027675;28;20936;-85
2022/11/29 11:14:50;;;;;;;15.60;3.30;;;18.50;96.00;;;;;;5016696;28;20867;-85
2022/11/29 11:17:31;;;;;;;13.57;3.20;;;18.60;95.90;;;;;;5031943;28;20478;-85
2022/11/29 11:20:15;;;;;;;13.10;3.00;;;18.70;95.60;;;;;;5001380;28;20948;-85
2022/11/29 11:22:42;;;;;;;15.00;3.10;;;18.70;95.20;;;;;;5012009;28;20756;-85
2022/11/29 11:25:33;;;;;;;13.75;3.17;;;18.60;94.50;;;;;;5009009;28;20388;-84
2022/11/29 11:28:22;;;;;;;13.48;3.28;;;18.60;94.00;;;;;;5015552;28;20938;-86
2022/11/29 11:30:53;;;;;;;10.88;2.90;;;18.60;93.10;;;;;;4964342;28;20405;-85
2022/11/29 11:33:22;;;;;;;11.48;2.70;;;18.50;92.60;;;;;;4954094;28;20400;-85
2022/11/29 11:36:05;;;;;;;12.93;2.65;;;18.50;92.00;;;;;;4964603;28;20431;-88
2022/11/29 11:38:38;;;;;;;11.23;2.90;;;18.50;91.80;;;;;;4966943;28;20426;-85
2022/11/29 11:44:41;;;;;;;10.73;2.70;;;18.50;91.30;;;;;;4965685;28;20448;-85
2022/11/29 11:47:21;;;;;;;14.23;3.13;;;18.60;91.20;;;;;;4965503;28;20404;-86
2022/11/29 11:49:50;;;;;;;12.20;3.08;;;18.60;91.00;;;;;;4967256;28;20394;-84
2022/11/29 11:52:25;;;;;;;12.20;3.08;;;18.50;90.70;;;;;;4965445;28;20497;-84
2022/11/29 11:54:56;;;;;;;10.82;3.03;;;18.50;90.60;;;;;;4960193;28;20860;-84
2022/11/29 11:57:25;;;;;;;11.85;2.88;;;18.50;90.80;;;;;;4970964;28;20405;-85
2022/11/29 11:59:56;;;;;;;9.70;2.50;;;18.50;91.10;;;;;;4983872;28;20393;-85
2022/11/29 12:02:29;;;;;;;13.15;3.22;;;18.50;90.70;;;;;;4982005;28;20928;-85
2022/11/29 12:05:00;;;;;;;12.55;2.92;;;18.50;90.50;;;;;;4986010;28;20438;-84
2022/11/29 12:07:38;;;;;;;10.57;2.72;;;18.60;90.40;;;;;;4993666;28;20386;-84
2022/11/29 12:10:11;;;;;;;12.27;3.10;;;18.60;89.60;;;;;;5009457;28;20391;-84
2022/11/29 12:12:43;;;;;;;11.15;2.92;;;18.50;89.60;;;;;;5008045;28;20473;-84
2022/11/29 12:15:21;;;;;;;11.80;2.80;;;18.40;89.20;;;;;;5006581;28;20387;-85
2022/11/29 12:18:15;;;;;;;10.95;2.70;;;18.40;89.00;;;;;;5016494;28;20381;-84
2022/11/29 12:21:04;;;;;;;13.50;2.90;;;18.50;89.30;;;;;;5011571;28;20910;-85
2022/11/29 12:23:40;;;;;;;13.82;3.05;;;18.40;89.50;;;;;;5002734;28;20407;-86
2022/11/29 12:26:27;;;;;;;12.40;2.88;;;18.40;89.10;;;;;;5002273;28;20752;-85
2022/11/29 12:28:54;;;;;;;12.10;2.92;;;18.40;89.80;;;;;;5005910;28;20399;-84
2022/11/29 12:31:27;;;;;;;13.98;2.80;;;18.40;90.10;;;;;;5004843;28;20486;-85
2022/11/29 12:34:12;;;;;;;12.30;2.60;;;18.40;89.70;;;;;;4998081;28;20456;-86
2022/11/29 12:36:42;;;;;;;12.40;2.80;;;18.50;89.80;;;;;;5004132;28;20391;-85
2022/11/29 12:39:29;;;;;;;10.05;2.72;;;18.50;89.10;;;;;;5000559;28;20395;-86
2022/11/29 12:41:58;;;;;;;9.60;2.70;;;18.40;88.50;;;;;;5007330;28;20403;-86
2022/11/29 12:44:53;;;;;;;11.53;2.40;;;18.40;88.70;;;;;;5017993;28;20404;-86
2022/11/29 12:47:38;;;;;;;10.38;2.58;;;18.40;88.50;;;;;;5002154;28;20402;-86
2022/11/29 12:50:17;;;;;;;12.82;2.60;;;18.40;88.40;;;;;;5014739;28;20521;-84
2022/11/29 12:53:11;;;;;;;9.63;2.60;;;18.40;88.50;;;;;;5017801;28;20389;-85
2022/11/29 12:55:53;;;;;;;10.20;2.63;;;18.40;87.80;;;;;;5018274;28;20407;-86
2022/11/29 12:58:44;;;;;;;11.40;2.72;;;18.40;88.10;;;;;;5056428;28;20402;-86
2022/11/29 13:01:44;;;;;;;10.80;2.50;;;18.40;88.40;;;;;;5046864;28;20409;-87
2022/11/29 13:04:32;;;;;;;9.73;2.67;;;18.40;88.50;;;;;;4984762;28;20412;-86
2022/11/29 13:07:13;;;;;;;12.38;2.80;;;18.50;88.20;;;;;;4964128;28;20394;-86
2022/11/29 13:09:40;;;;;;;9.63;2.60;;;18.50;88.60;;;;;;4972107;28;20380;-86
2022/11/29 13:12:27;;;;;;;9.77;2.50;;;18.40;88.30;;;;;;4975937;28;20924;-86
2022/11/29 13:15:22;;;;;;;14.18;2.50;;;18.40;88.30;;;;;;4961188;28;20393;-87
2022/11/29 13:18:04;;;;;;;13.45;3.00;;;18.40;87.60;;;;;;4983883;28;20491;-85
2022/11/29 13:20:58;;;;;;;11.40;2.70;;;18.40;88.20;;;;;;4984653;28;21002;-85
2022/11/29 13:23:31;;;;;;;11.40;2.63;;;18.40;88.20;;;;;;4984513;28;20768;-85
2022/11/29 13:26:03;;;;;;;9.98;2.40;;;18.40;87.80;;;;;;4979404;28;20804;-85
2022/11/29 13:28:36;;;;;;;11.05;2.80;;;18.40;87.90;;;;;;4971809;28;20395;-85
2022/11/29 13:31:10;;;;;;;9.63;2.42;;;18.30;88.30;;;;;;4983232;28;20416;-85
2022/11/29 13:33:58;;;;;;;13.25;2.75;;;18.30;88.40;;;;;;4973026;28;20428;-85
2022/11/29 13:36:37;;;;;;;11.18;2.42;;;18.30;88.70;;;;;;4971041;28;20392;-85
2022/11/29 13:39:27;;;;;;;10.68;2.80;;;18.30;89.40;;;;;;4962604;28;20435;-86
2022/11/29 13:42:12;;;;;;;12.02;2.67;;;18.30;89.10;;;;;;5038008;28;20883;-85
2022/11/29 13:44:44;;;;;;;11.30;2.72;;;18.30;88.40;;;;;;5063643;28;20411;-87
2022/11/29 13:47:17;;;;;;;9.50;2.60;;;18.30;89.00;;;;;;5062070;28;20397;-85
2022/11/29 13:50:03;;;;;;;10.20;2.50;;;18.40;89.30;;;;;;5057352;28;20446;-87
2022/11/29 13:52:39;;;;;;;10.75;2.70;;;18.40;89.50;;;;;;5057565;28;20417;-86
2022/11/29 13:55:13;;;;;;;12.25;2.58;;;18.40;89.50;;;;;;5065159;28;20391;-85